createdAt,value
2022-11-14T00:02:41.691Z,54.80
2022-11-14T00:05:29.021Z,54.80
2022-11-14T00:08:18.629Z,54.70
2022-11-14T00:11:05.986Z,54.60
2022-11-14T00:13:54.851Z,54.60
2022-11-14T00:16:41.786Z,54.70
2022-11-14T00:19:29.553Z,54.70
2022-11-14T00:22:16.774Z,54.70
2022-11-14T00:25:04.003Z,54.60
2022-11-14T00:27:51.374Z,54.70
2022-11-14T00:30:40.364Z,54.70
2022-11-14T00:33:27.365Z,54.70
2022-11-14T00:36:14.184Z,54.60
2022-11-14T00:39:01.179Z,54.60
2022-11-14T00:41:48.365Z,54.70
2022-11-14T00:44:35.950Z,54.80
2022-11-14T00:47:24.769Z,54.80
2022-11-14T00:50:12.367Z,54.70
2022-11-14T00:52:59.439Z,54.80
2022-11-14T00:55:46.674Z,54.80
2022-11-14T00:58:33.623Z,54.80
2022-11-14T01:01:21.376Z,54.70
2022-11-14T01:04:09.450Z,54.70
2022-11-14T01:06:56.773Z,54.80
2022-11-14T01:09:45.080Z,54.80
2022-11-14T01:12:32.269Z,54.70
2022-11-14T01:15:19.429Z,54.70
2022-11-14T01:18:06.701Z,54.70
2022-11-14T01:20:55.535Z,54.60
2022-11-14T01:23:42.894Z,54.60
2022-11-14T01:26:29.811Z,54.60
2022-11-14T01:29:17.132Z,54.60
2022-11-14T01:32:04.032Z,54.70
2022-11-14T01:34:51.581Z,54.60
2022-11-14T01:37:40.036Z,54.70
2022-11-14T01:40:27.764Z,54.60
2022-11-14T01:43:39.708Z,54.70
2022-11-14T01:46:31.109Z,54.70
2022-11-14T01:49:22.935Z,54.60
2022-11-14T01:52:13.585Z,55.20
2022-11-14T01:55:09.146Z,54.60
2022-11-14T01:57:58.392Z,54.60
2022-11-14T02:00:46.490Z,54.50
2022-11-14T02:03:37.744Z,54.50
2022-11-14T02:06:29.265Z,54.50
2022-11-14T02:09:16.726Z,54.40
2022-11-14T02:12:08.656Z,54.70
2022-11-14T02:14:58.634Z,54.40
2022-11-14T02:17:46.060Z,54.40
2022-11-14T02:20:43.098Z,54.40
2022-11-14T02:23:33.005Z,54.40
2022-11-14T02:26:21.645Z,54.40
2022-11-14T02:29:12.214Z,54.30
2022-11-14T02:31:59.172Z,54.30
2022-11-14T02:34:45.932Z,54.40
2022-11-14T02:37:34.710Z,54.40
2022-11-14T02:40:22.275Z,54.50
2022-11-14T02:43:09.831Z,55.30
2022-11-14T02:46:00.287Z,55.40
2022-11-14T02:48:51.434Z,55.40
2022-11-14T02:51:38.397Z,55.40
2022-11-14T02:54:27.139Z,55.40
2022-11-14T02:57:14.181Z,55.50
2022-11-14T03:00:01.463Z,55.40
2022-11-14T03:02:48.847Z,55.50
2022-11-14T03:05:36.153Z,55.50
2022-11-14T03:08:23.582Z,55.50
2022-11-14T03:11:12.593Z,55.50
2022-11-14T03:14:00.903Z,55.60
2022-11-14T03:16:48.467Z,55.70
2022-11-14T03:19:35.694Z,55.60
2022-11-14T03:22:22.913Z,55.70
2022-11-14T03:25:10.342Z,55.70
2022-11-14T03:27:59.388Z,55.80
2022-11-14T03:30:47.930Z,55.80
2022-11-14T03:33:35.510Z,55.80
2022-11-14T03:36:22.691Z,55.80
2022-11-14T03:39:09.956Z,55.70
2022-11-14T03:41:57.111Z,55.70
2022-11-14T03:44:45.662Z,55.70
2022-11-14T03:47:32.869Z,55.70
2022-11-14T03:50:20.059Z,55.80
2022-11-14T03:53:07.843Z,55.90
2022-11-14T03:55:55.058Z,55.90
2022-11-14T03:58:42.313Z,55.90
2022-11-14T04:01:31.026Z,56.00
2022-11-14T04:04:18.178Z,56.00
2022-11-14T04:07:06.376Z,56.00
2022-11-14T04:09:53.627Z,56.00
2022-11-14T04:12:40.808Z,55.90
2022-11-14T04:15:30.894Z,56.00
2022-11-14T04:18:19.488Z,55.90
2022-11-14T04:21:06.785Z,56.00
2022-11-14T04:23:53.688Z,56.10
2022-11-14T04:26:40.909Z,56.10
2022-11-14T04:29:27.963Z,56.10
2022-11-14T04:32:15.017Z,56.00
2022-11-14T04:35:03.792Z,56.00
2022-11-14T04:37:51.055Z,56.00
2022-11-14T04:40:38.588Z,56.10
2022-11-14T04:43:25.426Z,56.10
2022-11-14T04:46:12.702Z,56.10
2022-11-14T04:48:59.589Z,56.10
2022-11-14T04:51:47.842Z,56.10
2022-11-14T04:54:34.846Z,56.00
2022-11-14T04:57:22.385Z,56.10
2022-11-14T05:00:11.796Z,56.10
2022-11-14T05:03:00.989Z,56.10
2022-11-14T05:05:47.895Z,56.10
2022-11-14T05:08:37.402Z,56.10
2022-11-14T05:11:28.992Z,56.10
2022-11-14T05:14:16.691Z,56.10
2022-11-14T05:17:03.664Z,56.20
2022-11-14T05:19:51.157Z,56.10
2022-11-14T05:22:38.251Z,56.20
2022-11-14T05:25:26.872Z,56.20
2022-11-14T05:28:13.877Z,56.20
2022-11-14T05:31:04.996Z,56.10
2022-11-14T05:33:52.512Z,56.10
2022-11-14T05:36:39.711Z,56.10
2022-11-14T05:39:26.933Z,56.20
2022-11-14T05:42:15.426Z,56.10
2022-11-14T05:45:02.888Z,56.10
2022-11-14T05:47:50.142Z,56.20
2022-11-14T05:50:36.914Z,56.20
2022-11-14T05:53:24.409Z,56.20
2022-11-14T05:56:13.449Z,56.20
2022-11-14T05:59:02.580Z,56.20
2022-11-14T06:01:49.978Z,56.20
2022-11-14T06:04:37.365Z,56.20
2022-11-14T06:07:24.665Z,56.30
2022-11-14T06:10:11.867Z,56.40
2022-11-14T06:12:58.668Z,56.50
2022-11-14T06:15:47.417Z,56.60
2022-11-14T06:18:35.750Z,56.70
2022-11-14T06:21:25.388Z,56.70
2022-11-14T06:24:12.643Z,56.80
2022-11-14T06:26:59.702Z,56.80
2022-11-14T06:29:46.966Z,56.80
2022-11-14T06:32:35.435Z,56.80
2022-11-14T06:35:22.627Z,56.80
2022-11-14T06:38:09.698Z,56.90
2022-11-14T06:41:04.486Z,57.00
2022-11-14T06:43:54.720Z,56.90
2022-11-14T06:46:42.218Z,56.90
2022-11-14T06:49:32.563Z,56.90
2022-11-14T06:52:22.428Z,57.00
2022-11-14T06:55:10.476Z,56.90
2022-11-14T06:57:57.463Z,57.00
2022-11-14T07:00:44.840Z,57.00
2022-11-14T07:03:31.987Z,57.00
2022-11-14T07:06:23.805Z,56.90
2022-11-14T07:09:12.436Z,57.50
2022-11-14T07:11:59.367Z,56.90
2022-11-14T07:14:48.010Z,56.90
2022-11-14T07:17:36.869Z,57.00
2022-11-14T07:20:23.603Z,57.00
2022-11-14T07:23:12.187Z,57.00
2022-11-14T07:26:03.031Z,57.00
2022-11-14T07:28:53.605Z,57.20
2022-11-14T07:31:42.811Z,57.20
2022-11-14T07:34:29.635Z,57.20
2022-11-14T07:37:16.810Z,57.20
2022-11-14T07:40:06.462Z,57.30
2022-11-14T07:42:53.143Z,57.40
2022-11-14T07:45:40.157Z,57.40
2022-11-14T07:48:27.945Z,57.50
2022-11-14T07:51:18.320Z,57.50
2022-11-14T07:54:05.487Z,57.60
2022-11-14T07:56:53.882Z,57.50
2022-11-14T07:59:41.174Z,57.60
2022-11-14T08:02:28.233Z,57.70
2022-11-14T08:05:15.388Z,57.70
2022-11-14T08:08:02.553Z,57.90
2022-11-14T08:10:49.575Z,57.70
2022-11-14T08:13:38.084Z,57.70
2022-11-14T08:16:25.412Z,57.90
2022-11-14T08:19:12.668Z,57.80
2022-11-14T08:22:00.098Z,57.90
2022-11-14T08:24:47.455Z,57.90
2022-11-14T08:27:34.707Z,57.90
2022-11-14T08:30:23.418Z,58.00
2022-11-14T08:33:10.447Z,58.00
2022-11-14T08:35:57.550Z,58.10
2022-11-14T08:38:44.739Z,58.20
2022-11-14T08:41:32.152Z,58.20
2022-11-14T08:44:19.255Z,58.20
2022-11-14T08:47:07.943Z,58.40
2022-11-14T08:49:55.126Z,58.40
2022-11-14T08:52:42.102Z,58.40
2022-11-14T08:55:29.025Z,58.40
2022-11-14T08:58:16.719Z,58.50
2022-11-14T09:01:05.460Z,58.60
2022-11-14T09:03:59.390Z,58.60
2022-11-14T09:06:47.420Z,58.70
2022-11-14T09:09:34.508Z,58.70
2022-11-14T09:12:21.653Z,58.80
2022-11-14T09:15:10.247Z,58.80
2022-11-14T09:17:58.608Z,58.90
2022-11-14T09:20:47.439Z,58.90
2022-11-14T09:23:35.148Z,58.20
2022-11-14T09:26:22.259Z,58.20
2022-11-14T09:29:09.544Z,58.30
2022-11-14T09:31:57.209Z,58.30
2022-11-14T09:34:45.549Z,58.30
2022-11-14T09:37:34.209Z,58.40
2022-11-14T09:40:21.162Z,58.40
2022-11-14T09:43:29.033Z,58.50
2022-11-14T09:46:23.382Z,58.50
2022-11-14T09:49:27.003Z,58.40
2022-11-14T09:52:27.949Z,58.60
2022-11-14T09:55:21.296Z,58.60
2022-11-14T09:58:18.614Z,58.60
2022-11-14T10:01:09.983Z,58.60
2022-11-14T10:04:09.421Z,58.70
2022-11-14T10:07:08.169Z,58.70
2022-11-14T10:10:06.876Z,58.60
2022-11-14T10:13:09.898Z,58.60
2022-11-14T10:16:07.160Z,58.70
2022-11-14T10:19:12.771Z,58.60
2022-11-14T10:22:26.833Z,58.80
2022-11-14T10:25:27.813Z,58.80
2022-11-14T10:28:42.117Z,58.70
2022-11-14T10:31:43.167Z,58.80
2022-11-14T10:34:35.328Z,58.70
2022-11-14T10:37:31.847Z,59.30
2022-11-14T10:40:22.419Z,58.70
2022-11-14T10:43:24.748Z,58.80
2022-11-14T10:46:18.702Z,58.80
2022-11-14T10:49:19.614Z,58.80
2022-11-14T10:52:12.344Z,58.80
2022-11-14T10:55:06.360Z,58.80
2022-11-14T10:57:53.405Z,58.80
2022-11-14T11:00:42.011Z,58.80
2022-11-14T11:03:43.683Z,58.80
2022-11-14T11:06:30.856Z,58.90
2022-11-14T11:09:44.908Z,58.80
2022-11-14T11:12:46.083Z,59.50
2022-11-14T11:15:42.484Z,59.00
2022-11-14T11:18:32.923Z,59.00
2022-11-14T11:21:22.355Z,59.10
2022-11-14T11:24:10.685Z,59.10
2022-11-14T11:27:20.318Z,59.20
2022-11-14T11:30:23.187Z,59.20
2022-11-14T11:33:26.699Z,59.20
2022-11-14T11:36:19.055Z,59.30
2022-11-14T11:39:06.151Z,59.20
2022-11-14T11:42:11.460Z,59.30
2022-11-14T11:45:03.799Z,59.20
2022-11-14T11:47:58.819Z,59.30
2022-11-14T11:50:48.234Z,59.30
2022-11-14T11:53:39.860Z,59.30
2022-11-14T11:56:32.193Z,59.40
2022-11-14T11:59:33.441Z,59.40
2022-11-14T12:02:25.087Z,59.40
2022-11-14T12:05:16.508Z,59.40
2022-11-14T12:08:09.702Z,59.30
2022-11-14T12:10:58.328Z,59.40
2022-11-14T12:14:27.102Z,59.50
2022-11-14T12:18:06.605Z,59.50
2022-11-14T12:21:09.235Z,59.50
2022-11-14T12:24:55.968Z,59.50
2022-11-14T12:28:04.467Z,59.70
2022-11-14T12:30:58.277Z,59.70
2022-11-14T12:33:53.091Z,59.70
2022-11-14T12:36:45.125Z,59.70
2022-11-14T12:39:32.959Z,59.70
2022-11-14T12:42:23.397Z,59.70
2022-11-14T12:46:02.189Z,59.90
2022-11-14T12:48:49.452Z,60.00
2022-11-14T12:51:52.385Z,59.90
2022-11-14T12:54:49.245Z,60.00
2022-11-14T12:57:49.666Z,59.90
2022-11-14T13:00:41.081Z,59.90
2022-11-14T13:03:46.898Z,59.80
2022-11-14T13:06:47.150Z,59.80
2022-11-14T13:09:43.094Z,59.90
2022-11-14T13:12:52.638Z,59.90
2022-11-14T13:16:08.889Z,59.90
2022-11-14T13:19:26.324Z,60.00
2022-11-14T13:22:40.544Z,59.90
2022-11-14T13:25:28.451Z,60.10
2022-11-14T13:28:48.892Z,60.00
2022-11-14T13:31:51.323Z,60.20
2022-11-14T13:34:46.281Z,60.20
2022-11-14T13:37:59.026Z,60.10
2022-11-14T13:40:55.919Z,60.40
2022-11-14T13:44:00.484Z,60.30
2022-11-14T13:47:09.608Z,60.40
2022-11-14T13:50:06.892Z,60.50
2022-11-14T13:52:54.591Z,60.60
2022-11-14T13:56:02.004Z,60.50
2022-11-14T13:59:05.166Z,60.80
2022-11-14T14:02:26.013Z,60.70
2022-11-14T14:05:27.410Z,60.60
2022-11-14T14:08:33.126Z,60.60
2022-11-14T14:11:43.009Z,60.60
2022-11-14T14:14:59.667Z,60.60
2022-11-14T14:17:59.857Z,60.60
2022-11-14T14:20:53.631Z,60.50
2022-11-14T14:23:47.391Z,60.50
2022-11-14T14:26:55.603Z,60.50
2022-11-14T14:29:53.428Z,60.50
2022-11-14T14:32:41.125Z,60.40
2022-11-14T14:35:35.619Z,60.20
2022-11-14T14:38:30.413Z,60.40
2022-11-14T14:41:20.777Z,60.40
2022-11-14T14:44:20.448Z,60.40
2022-11-14T14:47:18.304Z,60.40
2022-11-14T14:50:15.532Z,60.30
2022-11-14T14:53:04.772Z,60.20
2022-11-14T14:55:58.787Z,60.90
2022-11-14T14:58:46.023Z,60.20
2022-11-14T15:01:35.681Z,60.10
2022-11-14T15:04:25.812Z,60.20
2022-11-14T15:07:23.825Z,60.10
2022-11-14T15:10:24.540Z,60.20
2022-11-14T15:13:17.591Z,60.20
2022-11-14T15:16:05.861Z,60.20
2022-11-14T15:18:54.755Z,60.00
2022-11-14T15:21:42.988Z,60.00
2022-11-14T15:24:30.495Z,60.00
2022-11-14T15:27:20.598Z,60.00
2022-11-14T15:30:24.568Z,60.00
2022-11-14T15:33:30.174Z,60.10
2022-11-14T15:36:18.486Z,60.00
2022-11-14T15:39:24.164Z,59.90
2022-11-14T15:42:15.842Z,60.10
2022-11-14T15:45:24.150Z,60.00
2022-11-14T15:48:16.443Z,60.00
2022-11-14T15:51:03.832Z,60.10
2022-11-14T15:53:53.368Z,60.00
2022-11-14T15:56:40.527Z,60.10
2022-11-14T15:59:31.128Z,60.10
2022-11-14T16:02:22.964Z,60.10
2022-11-14T16:05:14.708Z,60.20
2022-11-14T16:08:01.801Z,60.20
2022-11-14T16:10:49.160Z,60.00
2022-11-14T16:13:36.829Z,60.20
2022-11-14T16:16:24.205Z,60.20
2022-11-14T16:19:16.145Z,60.30
2022-11-14T16:22:04.243Z,60.40
2022-11-14T16:24:51.925Z,60.40
2022-11-14T16:27:39.095Z,60.40
2022-11-14T16:30:29.396Z,60.40
2022-11-14T16:33:17.167Z,60.50
2022-11-14T16:36:06.281Z,60.50
2022-11-14T16:38:53.333Z,60.60
2022-11-14T16:41:41.250Z,60.70
2022-11-14T16:44:28.420Z,60.80
2022-11-14T16:47:16.445Z,60.80
2022-11-14T16:50:03.669Z,60.80
2022-11-14T16:52:52.071Z,60.80
2022-11-14T16:55:45.133Z,61.00
2022-11-14T16:58:32.682Z,61.00
2022-11-14T17:01:21.361Z,61.20
2022-11-14T17:04:08.893Z,61.20
2022-11-14T17:06:56.115Z,61.40
2022-11-14T17:09:44.501Z,61.30
2022-11-14T17:12:32.213Z,61.40
2022-11-14T17:15:19.273Z,61.40
2022-11-14T17:18:07.319Z,61.50
2022-11-14T17:20:54.766Z,61.50
2022-11-14T17:23:42.358Z,61.60
2022-11-14T17:26:31.044Z,61.60
2022-11-14T17:29:18.082Z,61.60
2022-11-14T17:32:05.345Z,61.70
2022-11-14T17:34:52.332Z,61.70
2022-11-14T17:37:39.351Z,61.70
2022-11-14T17:40:26.519Z,61.70
2022-11-14T17:43:17.030Z,61.70
2022-11-14T17:46:07.938Z,61.80
2022-11-14T17:48:58.970Z,61.80
2022-11-14T17:51:46.236Z,61.80
2022-11-14T17:54:37.475Z,61.90
2022-11-14T17:57:24.273Z,61.80
2022-11-14T18:00:14.586Z,61.90
2022-11-14T18:03:02.198Z,62.10
2022-11-14T18:05:49.164Z,61.80
2022-11-14T18:08:37.358Z,61.90
2022-11-14T18:11:24.438Z,62.00
2022-11-14T18:14:11.790Z,62.00
2022-11-14T18:17:14.050Z,62.00
2022-11-14T18:20:01.191Z,62.10
2022-11-14T18:22:48.516Z,62.00
2022-11-14T18:25:35.545Z,61.90
2022-11-14T18:28:23.571Z,62.00
2022-11-14T18:31:13.432Z,61.90
2022-11-14T18:34:02.750Z,61.90
2022-11-14T18:36:50.231Z,61.90
2022-11-14T18:39:37.241Z,61.70
2022-11-14T18:42:24.422Z,61.80
2022-11-14T18:45:12.000Z,61.90
2022-11-14T18:47:58.989Z,61.80
2022-11-14T18:50:48.298Z,62.00
2022-11-14T18:53:37.293Z,62.00
2022-11-14T18:56:25.469Z,61.90
2022-11-14T18:59:12.604Z,62.80
2022-11-14T19:01:59.592Z,62.00
2022-11-14T19:04:46.514Z,62.00
2022-11-14T19:07:35.323Z,62.00
2022-11-14T19:10:22.408Z,62.00
2022-11-14T19:13:09.735Z,61.90
2022-11-14T19:16:02.165Z,61.80
2022-11-14T19:18:49.116Z,61.80
2022-11-14T19:21:36.683Z,61.70
2022-11-14T19:24:24.792Z,62.50
2022-11-14T19:27:11.907Z,61.60
2022-11-14T19:29:59.342Z,61.60
2022-11-14T19:32:46.602Z,61.60
2022-11-14T19:35:33.673Z,61.60
2022-11-14T19:38:21.208Z,61.50
2022-11-14T19:41:16.731Z,61.50
2022-11-14T19:44:04.506Z,61.40
2022-11-14T19:46:51.887Z,61.40
2022-11-14T19:49:38.866Z,61.30
2022-11-14T19:52:25.923Z,61.30
2022-11-14T19:55:13.352Z,61.20
2022-11-14T19:58:01.993Z,61.10
2022-11-14T20:00:49.621Z,61.00
2022-11-14T20:03:37.717Z,61.00
2022-11-14T20:06:27.681Z,60.90
2022-11-14T20:09:14.831Z,60.80
2022-11-14T20:12:03.456Z,60.80
2022-11-14T20:14:52.350Z,60.90
2022-11-14T20:17:39.584Z,60.90
2022-11-14T20:20:26.551Z,60.70
2022-11-14T20:23:14.246Z,60.70
2022-11-14T20:26:01.880Z,60.70
2022-11-14T20:28:52.144Z,60.70
2022-11-14T20:31:40.984Z,60.70
2022-11-14T20:34:28.235Z,60.70
2022-11-14T20:37:16.337Z,60.70
2022-11-14T20:40:03.791Z,60.70
2022-11-14T20:42:50.936Z,60.80
2022-11-14T20:45:38.556Z,60.70
2022-11-14T20:48:28.740Z,60.70
2022-11-14T20:51:18.792Z,60.80
2022-11-14T20:54:07.061Z,60.80
2022-11-14T20:56:54.453Z,60.70
2022-11-14T20:59:41.451Z,60.70
2022-11-14T21:02:28.860Z,60.80
2022-11-14T21:05:17.868Z,60.80
2022-11-14T21:08:05.044Z,60.90
2022-11-14T21:11:01.334Z,61.00
2022-11-14T21:14:05.499Z,61.10
2022-11-14T21:16:52.613Z,61.20
2022-11-14T21:19:39.551Z,61.20
2022-11-14T21:22:28.096Z,61.20
2022-11-14T21:25:14.963Z,61.20
2022-11-14T21:28:03.842Z,61.30
2022-11-14T21:30:51.332Z,61.30
2022-11-14T21:33:38.615Z,61.30
2022-11-14T21:39:34.987Z,61.30
2022-11-14T21:42:22.235Z,61.40
2022-11-14T21:45:11.532Z,61.40
2022-11-14T21:47:58.672Z,61.60
2022-11-14T21:50:45.748Z,61.60
2022-11-14T21:53:33.729Z,61.60
2022-11-14T21:56:25.160Z,62.50
2022-11-14T21:59:18.786Z,61.70
2022-11-14T22:02:23.502Z,61.90
2022-11-14T22:05:11.015Z,61.80
2022-11-14T22:08:00.108Z,62.00
2022-11-14T22:10:47.476Z,62.10
2022-11-14T22:13:35.761Z,62.20
2022-11-14T22:16:22.700Z,62.20
2022-11-14T22:19:09.885Z,62.30
2022-11-14T22:21:56.767Z,62.40
2022-11-14T22:24:43.759Z,62.40
2022-11-14T22:27:30.822Z,62.50
2022-11-14T22:30:19.597Z,62.70
2022-11-14T22:33:07.101Z,62.90
2022-11-14T22:35:53.989Z,62.80
2022-11-14T22:38:41.898Z,63.00
2022-11-14T22:41:33.009Z,63.10
2022-11-14T22:44:20.710Z,63.20
2022-11-14T22:47:09.366Z,63.30
2022-11-14T22:49:56.376Z,63.40
2022-11-14T22:52:43.378Z,63.50
2022-11-14T22:55:30.369Z,63.50
2022-11-14T22:58:17.934Z,63.60
2022-11-14T23:01:13.199Z,63.80
2022-11-14T23:04:04.380Z,63.90
2022-11-14T23:06:51.674Z,63.80
2022-11-14T23:09:39.338Z,63.80
2022-11-14T23:12:26.479Z,64.00
2022-11-14T23:15:14.613Z,64.00
2022-11-14T23:18:02.307Z,64.30
2022-11-14T23:20:50.921Z,64.40
2022-11-14T23:23:38.370Z,64.50
2022-11-14T23:26:27.409Z,64.50
2022-11-14T23:29:15.079Z,64.60
2022-11-14T23:32:02.900Z,64.70
2022-11-14T23:34:49.866Z,64.70
2022-11-14T23:37:38.508Z,64.80
2022-11-14T23:40:26.037Z,64.90
2022-11-14T23:43:13.110Z,65.10
2022-11-14T23:46:00.373Z,65.10
2022-11-14T23:48:47.590Z,65.20
2022-11-14T23:51:34.746Z,65.20
2022-11-14T23:54:23.242Z,65.30
2022-11-14T23:57:10.274Z,65.50
2022-11-14T23:59:57.701Z,65.60
